Lake Zurich, Illinois
Current Conditions -  °F | °C
As of 8:23 AM on Saturday 22 Nov 2014 (Local Time) from KPWK Reporting Station
Haze Haze  
Wind Chill: -1°   Ceiling: 400
Heat Index:   Visibility: 1.2mi
Dew Point:   Wind: 9mph
Humidity: 96%   Direction: 200°SSW
Pressure: 30.03"   Gusts: NA
Location:  42.2°N, 88.09°W
Report Text: KPWK 221423Z 20008KT 1 1/4SM BR OVC004 03/02 A3003 RMK AO2 T00280022
Loading
Personal Weather Stations






























Interactive Weather Map New forecast layout! Learn more

10-Day Weather Forecast

Advertisements
Track Severe Weather on mobile